sensor_id;sensor_type;location;lat;lon;timestamp;pressure;altitude;pressure_sealevel;temperature;humidity
68380;BME280;57711;53.196;19.638;2024-01-06T11:07:32;100058.23;;;-0.27;67.11
68380;BME280;57711;53.196;19.638;2024-01-06T11:10:24;100057.77;;;-0.29;67.06
68380;BME280;57711;53.196;19.638;2024-01-06T11:13:14;100053.70;;;-0.33;67.02
68380;BME280;57711;53.196;19.638;2024-01-06T11:15:45;100047.91;;;-0.34;67.16
68380;BME280;57711;53.196;19.638;2024-01-06T11:18:32;100043.20;;;-0.37;67.11
68380;BME280;57711;53.196;19.638;2024-01-06T11:24:19;100044.96;;;-0.48;67.23
68380;BME280;57711;53.196;19.638;2024-01-06T11:26:53;100043.91;;;-0.52;67.16
68380;BME280;57711;53.196;19.638;2024-01-06T11:29:23;100043.27;;;-0.57;67.10
68380;BME280;57711;53.196;19.638;2024-01-06T11:32:16;100041.23;;;-0.59;67.12
68380;BME280;57711;53.196;19.638;2024-01-06T11:34:47;100042.11;;;-0.59;67.11
68380;BME280;57711;53.196;19.638;2024-01-06T11:42:42;100045.46;;;-0.66;66.93
68380;BME280;57711;53.196;19.638;2024-01-06T11:45:09;100045.84;;;-0.70;66.87
68380;BME280;57711;53.196;19.638;2024-01-06T11:47:58;100049.52;;;-0.73;66.95
68380;BME280;57711;53.196;19.638;2024-01-06T11:50:26;100046.73;;;-0.74;67.01
68380;BME280;57711;53.196;19.638;2024-01-06T11:52:55;100049.05;;;-0.74;67.02
68380;BME280;57711;53.196;19.638;2024-01-06T11:55:22;100050.91;;;-0.77;66.91
68380;BME280;57711;53.196;19.638;2024-01-06T11:57:50;100052.46;;;-0.79;66.87
68380;BME280;57711;53.196;19.638;2024-01-06T12:00:17;100057.20;;;-0.82;66.81
68380;BME280;57711;53.196;19.638;2024-01-06T12:02:45;100060.30;;;-0.84;66.83
68380;BME280;57711;53.196;19.638;2024-01-06T12:05:18;100061.98;;;-0.86;66.90
68380;BME280;57711;53.196;19.638;2024-01-06T12:10:23;100067.50;;;-0.90;66.87
68380;BME280;57711;53.196;19.638;2024-01-06T12:13:04;100068.11;;;-0.91;66.83
68380;BME280;57711;53.196;19.638;2024-01-06T12:15:32;100074.44;;;-0.94;66.82
68380;BME280;57711;53.196;19.638;2024-01-06T12:18:05;100073.86;;;-0.93;66.80
68380;BME280;57711;53.196;19.638;2024-01-06T12:20:34;100065.70;;;-0.93;66.72
68380;BME280;57711;53.196;19.638;2024-01-06T12:23:01;100064.92;;;-0.92;66.63
68380;BME280;57711;53.196;19.638;2024-01-06T12:25:34;100064.73;;;-0.92;66.68
68380;BME280;57711;53.196;19.638;2024-01-06T12:28:06;100068.23;;;-0.90;66.82
68380;BME280;57711;53.196;19.638;2024-01-06T12:30:34;100068.20;;;-0.90;66.77
68380;BME280;57711;53.196;19.638;2024-01-06T12:33:04;100065.17;;;-0.89;66.71
68380;BME280;57711;53.196;19.638;2024-01-06T12:35:31;100066.45;;;-0.90;66.66
68380;BME280;57711;53.196;19.638;2024-01-06T12:37:59;100066.20;;;-0.92;66.66
68380;BME280;57711;53.196;19.638;2024-01-06T12:40:28;100063.23;;;-0.97;66.57
68380;BME280;57711;53.196;19.638;2024-01-06T12:42:55;100066.55;;;-1.00;66.73
68380;BME280;57711;53.196;19.638;2024-01-06T12:45:22;100068.01;;;-1.01;66.65
68380;BME280;57711;53.196;19.638;2024-01-06T12:47:52;100071.07;;;-1.02;66.68
68380;BME280;57711;53.196;19.638;2024-01-06T12:50:33;100071.09;;;-1.03;66.69
68380;BME280;57711;53.196;19.638;2024-01-06T12:53:09;100075.52;;;-1.02;66.83
68380;BME280;57711;53.196;19.638;2024-01-06T12:55:39;100075.83;;;-1.02;66.92
68380;BME280;57711;53.196;19.638;2024-01-06T12:58:06;100076.06;;;-1.03;66.66
68380;BME280;57711;53.196;19.638;2024-01-06T13:00:35;100076.93;;;-1.02;66.67
68380;BME280;57711;53.196;19.638;2024-01-06T13:03:03;100077.73;;;-1.00;66.55
68380;BME280;57711;53.196;19.638;2024-01-06T13:05:31;100081.04;;;-0.99;66.50
68380;BME280;57711;53.196;19.638;2024-01-06T13:07:59;100083.67;;;-0.99;66.54
68380;BME280;57711;53.196;19.638;2024-01-06T13:10:26;100091.42;;;-0.97;66.54
68380;BME280;57711;53.196;19.638;2024-01-06T13:12:58;100092.63;;;-0.96;66.62
68380;BME280;57711;53.196;19.638;2024-01-06T13:15:42;100089.79;;;-0.96;66.62
68380;BME280;57711;53.196;19.638;2024-01-06T13:18:09;100094.71;;;-0.95;66.60
68380;BME280;57711;53.196;19.638;2024-01-06T13:20:37;100099.20;;;-0.96;66.68
68380;BME280;57711;53.196;19.638;2024-01-06T13:23:07;100102.98;;;-0.98;66.59
68380;BME280;57711;53.196;19.638;2024-01-06T13:25:35;100104.11;;;-0.99;66.59
68380;BME280;57711;53.196;19.638;2024-01-06T13:28:02;100103.64;;;-0.97;66.70
68380;BME280;57711;53.196;19.638;2024-01-06T13:30:30;100106.13;;;-0.97;66.73
68380;BME280;57711;53.196;19.638;2024-01-06T13:32:59;100102.39;;;-0.97;66.64
68380;BME280;57711;53.196;19.638;2024-01-06T13:35:27;100100.05;;;-1.00;66.60
68380;BME280;57711;53.196;19.638;2024-01-06T13:37:55;100107.14;;;-0.99;66.57
68380;BME280;57711;53.196;19.638;2024-01-06T13:40:23;100112.01;;;-1.01;66.59
68380;BME280;57711;53.196;19.638;2024-01-06T13:42:51;100113.88;;;-1.03;66.55
68380;BME280;57711;53.196;19.638;2024-01-06T13:45:19;100117.55;;;-1.06;66.62
68380;BME280;57711;53.196;19.638;2024-01-06T13:47:56;100120.16;;;-1.09;66.56
68380;BME280;57711;53.196;19.638;2024-01-06T13:50:51;100124.28;;;-1.10;66.46
68380;BME280;57711;53.196;19.638;2024-01-06T13:53:19;100120.38;;;-1.10;66.35
68380;BME280;57711;53.196;19.638;2024-01-06T13:55:46;100121.52;;;-1.08;66.42
68380;BME280;57711;53.196;19.638;2024-01-06T13:58:14;100123.66;;;-1.08;66.37
68380;BME280;57711;53.196;19.638;2024-01-06T14:00:43;100125.53;;;-1.10;66.53
68380;BME280;57711;53.196;19.638;2024-01-06T14:03:10;100123.46;;;-1.11;66.47
68380;BME280;57711;53.196;19.638;2024-01-06T14:05:38;100125.09;;;-1.12;66.59
68380;BME280;57711;53.196;19.638;2024-01-06T14:08:07;100131.51;;;-1.13;66.51
68380;BME280;57711;53.196;19.638;2024-01-06T14:10:34;100138.70;;;-1.15;66.28
68380;BME280;57711;53.196;19.638;2024-01-06T14:13:01;100144.52;;;-1.19;66.35
68380;BME280;57711;53.196;19.638;2024-01-06T14:15:29;100142.92;;;-1.22;66.32
68380;BME280;57711;53.196;19.638;2024-01-06T14:17:58;100144.21;;;-1.24;66.44
68380;BME280;57711;53.196;19.638;2024-01-06T14:20:26;100147.89;;;-1.27;66.36
68380;BME280;57711;53.196;19.638;2024-01-06T14:22:55;100147.38;;;-1.31;66.31
68380;BME280;57711;53.196;19.638;2024-01-06T14:25:22;100145.08;;;-1.31;66.35
68380;BME280;57711;53.196;19.638;2024-01-06T14:27:49;100145.95;;;-1.31;66.48
68380;BME280;57711;53.196;19.638;2024-01-06T14:30:16;100149.45;;;-1.30;66.43
68380;BME280;57711;53.196;19.638;2024-01-06T14:32:44;100152.70;;;-1.31;66.31
68380;BME280;57711;53.196;19.638;2024-01-06T14:35:12;100153.34;;;-1.30;66.28
68380;BME280;57711;53.196;19.638;2024-01-06T14:37:41;100156.44;;;-1.28;66.45
68380;BME280;57711;53.196;19.638;2024-01-06T14:40:09;100159.41;;;-1.26;66.47
68380;BME280;57711;53.196;19.638;2024-01-06T14:42:36;100159.52;;;-1.25;66.40
68380;BME280;57711;53.196;19.638;2024-01-06T14:45:04;100161.95;;;-1.28;66.35
68380;BME280;57711;53.196;19.638;2024-01-06T14:47:31;100166.10;;;-1.30;66.35
68380;BME280;57711;53.196;19.638;2024-01-06T14:49:59;100172.58;;;-1.31;66.42
68380;BME280;57711;53.196;19.638;2024-01-06T14:52:27;100180.56;;;-1.32;66.45
68380;BME280;57711;53.196;19.638;2024-01-06T14:54:55;100181.55;;;-1.35;66.38
68380;BME280;57711;53.196;19.638;2024-01-06T14:57:22;100193.42;;;-1.38;66.27
68380;BME280;57711;53.196;19.638;2024-01-06T14:59:49;100192.00;;;-1.43;66.32
68380;BME280;57711;53.196;19.638;2024-01-06T15:02:17;100186.45;;;-1.46;66.36
68380;BME280;57711;53.196;19.638;2024-01-06T15:04:45;100192.38;;;-1.48;66.35
68380;BME280;57711;53.196;19.638;2024-01-06T15:07:12;100198.27;;;-1.48;66.48
68380;BME280;57711;53.196;19.638;2024-01-06T15:09:39;100207.52;;;-1.45;66.45
68380;BME280;57711;53.196;19.638;2024-01-06T15:12:10;100204.92;;;-1.42;66.40
68380;BME280;57711;53.196;19.638;2024-01-06T15:14:37;100206.71;;;-1.42;66.20
68380;BME280;57711;53.196;19.638;2024-01-06T15:17:05;100207.80;;;-1.43;66.40
68380;BME280;57711;53.196;19.638;2024-01-06T15:19:32;100210.06;;;-1.46;66.33
68380;BME280;57711;53.196;19.638;2024-01-06T15:22:00;100209.50;;;-1.50;66.34
68380;BME280;57711;53.196;19.638;2024-01-06T15:24:28;100219.27;;;-1.51;66.55
68380;BME280;57711;53.196;19.638;2024-01-06T15:26:56;100229.02;;;-1.51;66.36
68380;BME280;57711;53.196;19.638;2024-01-06T15:29:23;100223.85;;;-1.50;66.61
68380;BME280;57711;53.196;19.638;2024-01-06T15:31:50;100223.36;;;-1.51;66.42
68380;BME280;57711;53.196;19.638;2024-01-06T15:34:24;100224.69;;;-1.53;66.48
68380;BME280;57711;53.196;19.638;2024-01-06T15:36:52;100227.13;;;-1.56;66.44
68380;BME280;57711;53.196;19.638;2024-01-06T15:39:19;100226.83;;;-1.58;66.39
68380;BME280;57711;53.196;19.638;2024-01-06T15:41:47;100226.84;;;-1.58;66.43
68380;BME280;57711;53.196;19.638;2024-01-06T15:44:14;100230.13;;;-1.56;66.41
68380;BME280;57711;53.196;19.638;2024-01-06T15:46:41;100230.63;;;-1.55;66.41
68380;BME280;57711;53.196;19.638;2024-01-06T15:49:14;100231.31;;;-1.55;66.46
68380;BME280;57711;53.196;19.638;2024-01-06T15:52:14;100230.02;;;-1.54;66.49
68380;BME280;57711;53.196;19.638;2024-01-06T15:54:41;100231.87;;;-1.56;66.25
68380;BME280;57711;53.196;19.638;2024-01-06T15:57:09;100232.28;;;-1.57;66.37
68380;BME280;57711;53.196;19.638;2024-01-06T15:59:37;100236.98;;;-1.60;66.32
68380;BME280;57711;53.196;19.638;2024-01-06T16:02:04;100240.02;;;-1.64;66.26
68380;BME280;57711;53.196;19.638;2024-01-06T16:04:32;100242.58;;;-1.66;66.34
68380;BME280;57711;53.196;19.638;2024-01-06T16:06:59;100239.84;;;-1.69;66.34
68380;BME280;57711;53.196;19.638;2024-01-06T16:09:26;100245.15;;;-1.73;66.27
68380;BME280;57711;53.196;19.638;2024-01-06T16:11:54;100249.65;;;-1.75;66.30
68380;BME280;57711;53.196;19.638;2024-01-06T16:14:24;100249.92;;;-1.73;66.44
68380;BME280;57711;53.196;19.638;2024-01-06T16:16:58;100253.90;;;-1.70;66.20
68380;BME280;57711;53.196;19.638;2024-01-06T17:15:51;100313.66;;;-1.71;65.78
68380;BME280;57711;53.196;19.638;2024-01-06T17:18:22;100315.45;;;-1.71;65.80
68380;BME280;57711;53.196;19.638;2024-01-06T17:20:50;100317.38;;;-1.71;65.84
68380;BME280;57711;53.196;19.638;2024-01-06T17:23:17;100320.74;;;-1.71;65.97
68380;BME280;57711;53.196;19.638;2024-01-06T17:25:45;100328.13;;;-1.74;65.78
68380;BME280;57711;53.196;19.638;2024-01-06T17:28:12;100339.88;;;-1.80;65.80
68380;BME280;57711;53.196;19.638;2024-01-06T17:30:39;100343.63;;;-1.85;65.85
68380;BME280;57711;53.196;19.638;2024-01-06T17:33:07;100345.34;;;-1.88;66.03
68380;BME280;57711;53.196;19.638;2024-01-06T17:35:34;100345.52;;;-1.94;65.96
68380;BME280;57711;53.196;19.638;2024-01-06T17:38:02;100345.93;;;-2.00;65.92
68380;BME280;57711;53.196;19.638;2024-01-06T17:40:30;100346.48;;;-2.06;65.76
68380;BME280;57711;53.196;19.638;2024-01-06T17:42:58;100348.55;;;-2.14;65.83
68380;BME280;57711;53.196;19.638;2024-01-06T17:45:27;100349.29;;;-2.20;65.95
68380;BME280;57711;53.196;19.638;2024-01-06T17:47:55;100350.11;;;-2.23;65.84
68380;BME280;57711;53.196;19.638;2024-01-06T17:50:22;100352.30;;;-2.30;65.78
68380;BME280;57711;53.196;19.638;2024-01-06T17:52:54;100363.39;;;-2.34;65.78
68380;BME280;57711;53.196;19.638;2024-01-06T17:55:43;100364.13;;;-2.34;65.87
68380;BME280;57711;53.196;19.638;2024-01-06T17:58:19;100365.73;;;-2.35;65.92
68380;BME280;57711;53.196;19.638;2024-01-06T18:00:46;100370.36;;;-2.35;65.93
68380;BME280;57711;53.196;19.638;2024-01-06T18:03:14;100371.63;;;-2.35;65.82
68380;BME280;57711;53.196;19.638;2024-01-06T18:05:58;100370.19;;;-2.35;65.94
68380;BME280;57711;53.196;19.638;2024-01-06T18:10:02;100375.79;;;-2.39;65.78
68380;BME280;57711;53.196;19.638;2024-01-06T18:12:54;100380.70;;;-2.42;65.79
68380;BME280;57711;53.196;19.638;2024-01-06T18:15:22;100380.48;;;-2.46;65.73
68380;BME280;57711;53.196;19.638;2024-01-06T18:17:49;100380.98;;;-2.51;65.75
68380;BME280;57711;53.196;19.638;2024-01-06T18:20:16;100379.88;;;-2.54;65.75
68380;BME280;57711;53.196;19.638;2024-01-06T18:22:48;100381.65;;;-2.55;65.79
68380;BME280;57711;53.196;19.638;2024-01-06T18:25:16;100386.80;;;-2.55;65.82
68380;BME280;57711;53.196;19.638;2024-01-06T18:27:43;100392.02;;;-2.58;65.85
68380;BME280;57711;53.196;19.638;2024-01-06T18:30:12;100394.99;;;-2.57;65.92
68380;BME280;57711;53.196;19.638;2024-01-06T18:32:39;100403.54;;;-2.53;65.85
68380;BME280;57711;53.196;19.638;2024-01-06T18:35:13;100409.45;;;-2.50;65.77
68380;BME280;57711;53.196;19.638;2024-01-06T18:37:45;100415.38;;;-2.47;65.78
68380;BME280;57711;53.196;19.638;2024-01-06T18:40:13;100417.20;;;-2.43;65.83
68380;BME280;57711;53.196;19.638;2024-01-06T18:42:40;100418.33;;;-2.40;65.81
68380;BME280;57711;53.196;19.638;2024-01-06T18:45:07;100419.34;;;-2.38;65.74
68380;BME280;57711;53.196;19.638;2024-01-06T18:47:35;100419.17;;;-2.39;65.66
68380;BME280;57711;53.196;19.638;2024-01-06T18:50:04;100418.98;;;-2.38;65.80
68380;BME280;57711;53.196;19.638;2024-01-06T18:52:41;100421.23;;;-2.42;65.70
68380;BME280;57711;53.196;19.638;2024-01-06T18:55:24;100420.52;;;-2.47;65.75
68380;BME280;57711;53.196;19.638;2024-01-06T18:57:51;100424.46;;;-2.49;65.83
68380;BME280;57711;53.196;19.638;2024-01-06T19:00:19;100428.83;;;-2.52;65.75
68380;BME280;57711;53.196;19.638;2024-01-06T19:02:47;100431.02;;;-2.54;65.76
68380;BME280;57711;53.196;19.638;2024-01-06T19:05:19;100433.63;;;-2.53;65.94
68380;BME280;57711;53.196;19.638;2024-01-06T19:08:01;100428.38;;;-2.49;65.77
68380;BME280;57711;53.196;19.638;2024-01-06T19:10:28;100432.05;;;-2.48;65.79
68380;BME280;57711;53.196;19.638;2024-01-06T19:12:59;100432.41;;;-2.48;65.78
68380;BME280;57711;53.196;19.638;2024-01-06T19:15:26;100434.55;;;-2.43;66.00
68380;BME280;57711;53.196;19.638;2024-01-06T19:17:54;100430.02;;;-2.40;65.81
68380;BME280;57711;53.196;19.638;2024-01-06T19:20:21;100428.52;;;-2.38;66.00
68380;BME280;57711;53.196;19.638;2024-01-06T19:22:51;100432.34;;;-2.35;65.90
68380;BME280;57711;53.196;19.638;2024-01-06T19:25:34;100428.83;;;-2.36;65.91
68380;BME280;57711;53.196;19.638;2024-01-06T19:28:03;100427.83;;;-2.37;65.88
68380;BME280;57711;53.196;19.638;2024-01-06T19:30:31;100427.63;;;-2.37;65.87
68380;BME280;57711;53.196;19.638;2024-01-06T19:32:58;100429.41;;;-2.38;65.94
68380;BME280;57711;53.196;19.638;2024-01-06T19:35:26;100426.21;;;-2.37;65.95
68380;BME280;57711;53.196;19.638;2024-01-06T19:37:53;100431.30;;;-2.36;65.97
68380;BME280;57711;53.196;19.638;2024-01-06T19:40:20;100429.42;;;-2.33;65.88
68380;BME280;57711;53.196;19.638;2024-01-06T19:42:51;100434.22;;;-2.33;65.75
68380;BME280;57711;53.196;19.638;2024-01-06T19:45:18;100436.31;;;-2.32;65.88
68380;BME280;57711;53.196;19.638;2024-01-06T19:47:47;100437.00;;;-2.31;65.67
68380;BME280;57711;53.196;19.638;2024-01-06T19:50:15;100434.36;;;-2.32;65.82
68380;BME280;57711;53.196;19.638;2024-01-06T19:52:51;100430.34;;;-2.34;65.77
68380;BME280;57711;53.196;19.638;2024-01-06T19:55:55;100434.20;;;-2.38;65.68
68380;BME280;57711;53.196;19.638;2024-01-06T19:58:22;100431.63;;;-2.40;65.60
68380;BME280;57711;53.196;19.638;2024-01-06T20:00:50;100433.17;;;-2.44;65.59
68380;BME280;57711;53.196;19.638;2024-01-06T20:03:18;100437.91;;;-2.48;65.64
68380;BME280;57711;53.196;19.638;2024-01-06T20:05:45;100428.95;;;-2.50;65.74
68380;BME280;57711;53.196;19.638;2024-01-06T20:08:13;100434.84;;;-2.53;65.72
68380;BME280;57711;53.196;19.638;2024-01-06T20:10:40;100432.08;;;-2.54;65.75
68380;BME280;57711;53.196;19.638;2024-01-06T20:13:08;100435.83;;;-2.55;65.78
68380;BME280;57711;53.196;19.638;2024-01-06T20:15:35;100431.41;;;-2.55;65.62
68380;BME280;57711;53.196;19.638;2024-01-06T20:18:03;100429.77;;;-2.54;65.61
68380;BME280;57711;53.196;19.638;2024-01-06T20:20:36;100427.77;;;-2.52;65.50
68380;BME280;57711;53.196;19.638;2024-01-06T20:23:13;100429.32;;;-2.51;65.50
68380;BME280;57711;53.196;19.638;2024-01-06T20:25:44;100430.88;;;-2.50;65.56
68380;BME280;57711;53.196;19.638;2024-01-06T20:28:16;100433.52;;;-2.50;65.65
68380;BME280;57711;53.196;19.638;2024-01-06T20:30:54;100435.63;;;-2.49;65.56
68380;BME280;57711;53.196;19.638;2024-01-06T20:33:25;100436.77;;;-2.51;65.55
68380;BME280;57711;53.196;19.638;2024-01-06T20:35:53;100433.57;;;-2.57;65.44
68380;BME280;57711;53.196;19.638;2024-01-06T20:38:21;100432.47;;;-2.56;65.60
68380;BME280;57711;53.196;19.638;2024-01-06T20:40:50;100426.11;;;-2.56;65.56
68380;BME280;57711;53.196;19.638;2024-01-06T20:43:17;100429.31;;;-2.56;65.62
68380;BME280;57711;53.196;19.638;2024-01-06T20:45:47;100436.15;;;-2.54;65.65
68380;BME280;57711;53.196;19.638;2024-01-06T20:48:16;100436.84;;;-2.54;65.70
68380;BME280;57711;53.196;19.638;2024-01-06T20:50:44;100439.50;;;-2.53;65.61
68380;BME280;57711;53.196;19.638;2024-01-06T20:53:12;100441.15;;;-2.56;65.51
68380;BME280;57711;53.196;19.638;2024-01-06T20:55:41;100441.21;;;-2.57;65.49
68380;BME280;57711;53.196;19.638;2024-01-06T20:58:15;100438.83;;;-2.55;65.45
68380;BME280;57711;53.196;19.638;2024-01-06T21:00:47;100441.95;;;-2.53;65.48
68380;BME280;57711;53.196;19.638;2024-01-06T21:03:15;100437.98;;;-2.51;65.27
68380;BME280;57711;53.196;19.638;2024-01-06T21:05:42;100436.74;;;-2.51;65.56
68380;BME280;57711;53.196;19.638;2024-01-06T21:08:10;100443.46;;;-2.51;65.37
68380;BME280;57711;53.196;19.638;2024-01-06T21:10:37;100442.07;;;-2.51;65.29
68380;BME280;57711;53.196;19.638;2024-01-06T21:13:04;100444.68;;;-2.50;65.46
68380;BME280;57711;53.196;19.638;2024-01-06T21:15:32;100448.11;;;-2.52;65.41
68380;BME280;57711;53.196;19.638;2024-01-06T21:17:59;100446.77;;;-2.54;65.44
68380;BME280;57711;53.196;19.638;2024-01-06T21:20:26;100448.48;;;-2.58;65.43
68380;BME280;57711;53.196;19.638;2024-01-06T21:22:54;100450.30;;;-2.59;65.39
68380;BME280;57711;53.196;19.638;2024-01-06T21:25:34;100451.98;;;-2.62;65.41
68380;BME280;57711;53.196;19.638;2024-01-06T21:28:38;100457.29;;;-2.68;65.38
68380;BME280;57711;53.196;19.638;2024-01-06T21:31:43;100457.52;;;-2.70;65.45
68380;BME280;57711;53.196;19.638;2024-01-06T21:34:18;100452.25;;;-2.71;65.44
68380;BME280;57711;53.196;19.638;2024-01-06T21:36:50;100455.08;;;-2.76;65.40
68380;BME280;57711;53.196;19.638;2024-01-06T21:39:18;100460.64;;;-2.84;65.23
68380;BME280;57711;53.196;19.638;2024-01-06T21:41:45;100460.23;;;-2.88;65.35
68380;BME280;57711;53.196;19.638;2024-01-06T21:44:13;100465.19;;;-2.89;65.34
68380;BME280;57711;53.196;19.638;2024-01-06T21:46:40;100464.61;;;-2.88;65.45
68380;BME280;57711;53.196;19.638;2024-01-06T21:49:11;100464.42;;;-2.87;65.39
68380;BME280;57711;53.196;19.638;2024-01-06T21:51:47;100468.11;;;-2.86;65.41
68380;BME280;57711;53.196;19.638;2024-01-06T21:54:19;100462.44;;;-2.86;65.37
68380;BME280;57711;53.196;19.638;2024-01-06T21:57:20;100462.16;;;-2.88;65.42
68380;BME280;57711;53.196;19.638;2024-01-06T21:59:48;100467.46;;;-2.88;65.38
68380;BME280;57711;53.196;19.638;2024-01-06T22:02:19;100467.77;;;-2.87;65.35
68380;BME280;57711;53.196;19.638;2024-01-06T22:04:48;100467.02;;;-2.91;65.40
68380;BME280;57711;53.196;19.638;2024-01-06T22:07:15;100466.06;;;-2.94;65.34
68380;BME280;57711;53.196;19.638;2024-01-06T22:09:43;100464.11;;;-2.99;65.25
68380;BME280;57711;53.196;19.638;2024-01-06T22:12:14;100466.11;;;-3.01;65.26
68380;BME280;57711;53.196;19.638;2024-01-06T22:15:02;100470.70;;;-3.08;65.30
68380;BME280;57711;53.196;19.638;2024-01-06T22:17:41;100475.10;;;-3.12;65.39
